Terminal Aerodrome Forecast
Issued by NWS

Home | Current Version | Previous Version | Text Only | Print | Product List | Glossary On
Versions: 1 2 3 4 5 6 7 8 9 10 11 12 13 14 15 16 17 18 19 20 21 22 23 24 25 26 27 28 29 30 31 32 33 34
000
FTUS45 KBOI 210306 AAA
TAFMYL
TAF AMD
KMYL 210306Z 2103/2124 VRB05KT P6SM VCSH SCT040 BKN080
      TEMPO 2103/2107 3SM -SHSN OVC040
     FM211500 VRB05KT 3SM BR VCSH OVC020
     FM211800 17004KT P6SM VCSH SCT020 BKN040 PROB30 2118/2124 3SM
      -SHSN OVC020=

USA.gov is the U.S. government's official web portal to all federal, state and local government web resources and services.